Weather observations for the past three days for
Orlando / Sanford Airport
Metric (Imperial)
Date Time (edt) Wind (kph) Vis. (km) Weather Sky Cond. Temperature (ºC) Relative Humidity Wind Chill (°C) Heat Index (°C) Pressure Precipitation (cm)
Air Dwpt 6 hour altimeter (cm) sea level (mb) 1 hr 3 hr 6 hr
Max. Min.
08 14:53 S 9 16.09 Mostly Cloudy BKN050 BKN065 32.2 19.4 47% 34 75.97 1012.8
08 13:53 Vrbl 7 16.09 Overcast OVC065 31.7 19.4 32.2 23.9 48% 33 76.05 1013.8
08 12:53 W 7 16.09 Mostly Cloudy FEW041 BKN055 31.1 20 52% 33 76.1 1014.5
08 11:53 Calm 16.09 Mostly Cloudy FEW038 BKN049 29.4 20.6 59% 32 76.17 1015.4
08 10:53 NW 11 16.09 Overcast SCT029 BKN038 OVC047 28.3 20.6 63% 30 76.2 1015.6
08 09:53 NW 17 16.09 Partly Cloudy SCT015 27.8 21.7 69% 30 76.2 1015.6
08 08:53 W 17 16.09 Partly Cloudy SCT015 26.1 21.7 77% 28 76.17 1015.4
08 07:53 W 7 16.09 Fair CLR 23.9 21.7 23.9 22.2 88% 24 76.15 1015.0
08 06:53 NW 6 16.09 Mostly Cloudy SCT013 BKN023 22.8 21.1 90% 76.1 1014.3
08 05:53 W 6 16.09 Fair CLR 22.8 20.6 87% 76.02 1013.4
08 04:53 W 7 16.09 Partly Cloudy SCT024 22.8 20.6 87% 76.02 1013.4
08 03:53 NW 11 16.09 Mostly Cloudy BKN016 23.3 21.1 88% 76.02 1013.5
08 02:53 W 15 16.09 Fair CLR 23.3 20.6 85% 76.02 1013.5
08 01:53 W 13 16.09 Fair CLR 23.9 19.4 30.6 23.9 76% 24 76.05 1013.8
08 00:53 W 17 16.09 Fair CLR 24.4 19.4 74% 25 76.07 1014.0
07 23:53 W 15 16.09 Fair CLR 25 18.9 69% 26 76.07 1014.0
07 22:53 W 17 16.09 Fair CLR 26.1 18.3 62% 27 76.05 1013.7
07 21:53 W 19 16.09 Fair CLR 27.8 16.1 49% 28 76 1013.1
07 20:53 W 17 16.09 Fair CLR 28.9 11.7 34% 28 75.97 1012.7
07 19:53 W 20 16.09 Light Rain CLR 30.6 11.1 36.1 30.6 30% 29 75.95 1012.3
07 18:53 W 24 16.09 Fair CLR 33.3 10 24% 32 75.95 1012.2
07 17:53 W 15 16.09 Fair CLR 35.6 10.6 22% 34 75.9 1011.8
07 16:53 W 17 16.09 Fair CLR 35.6 11.7 23% 34 75.92 1012.1
07 15:53 SW 22 16.09 Fair CLR 35.6 12.2 24% 34 76 1012.9
07 14:53 W 26 G 39 16.09 Fair CLR 35.6 12.8 25% 35 76.05 1013.6
07 13:53 S 22 16.09 Fair CLR 34.4 15.6 34.4 22.2 32% 34 76.12 1014.6
07 12:53 SW 24 G 33 16.09 Fair CLR 33.3 17.2 38% 34 76.12 1014.8
07 11:53 SW 20 16.09 Fair CLR 32.8 17.2 39% 33 76.17 1015.3
07 10:53 SW 15 16.09 Fair CLR 29.4 18.9 53% 31 76.2 1015.8
07 09:53 S 15 16.09 Fair CLR 27.8 19.4 60% 29 76.23 1016.1
07 08:53 S 19 16.09 Fair CLR 25 19.4 71% 26 76.2 1015.8
07 07:53 S 11 16.09 Fair CLR 22.2 18.9 23.9 20.6 82% 76.23 1016.1
07 06:53 S 13 16.09 Fair CLR 21.7 18.3 81% 76.17 1015.4
07 05:53 S 6 16.09 Fair CLR 21.7 17.8 79% 76.17 1015.3
07 04:53 S 11 16.09 Fair CLR 22.2 17.8 76% 76.1 1014.5
07 03:53 S 11 16.09 Fair CLR 22.8 17.2 71% 76.12 1014.6
07 02:53 SE 6 16.09 Fair CLR 22.2 16.1 68% 76.17 1015.3
07 01:53 SW 6 16.09 Fair CLR 23.3 16.1 27.8 23.3 64% 76.2 1015.9
07 00:53 S 9 16.09 Fair CLR 24.4 15.6 58% 26 76.23 1016.2
06 23:53 S 13 16.09 Fair CLR 24.4 15.6 58% 26 76.25 1016.4
06 22:53 S 7 16.09 Fair CLR 24.4 15.6 58% 26 76.25 1016.6
06 21:53 SE 15 16.09 Fair CLR 25.6 15 52% 26 76.2 1015.8
06 20:53 SE 15 16.09 Fair CLR 25.6 15.6 54% 26 76.17 1015.5
06 19:53 SE 19 16.09 Fair CLR 28.3 15.6 33.9 28.3 46% 28 76.15 1015.0
06 18:53 SE 24 16.09 Fair CLR 30.6 16.7 43% 31 76.12 1014.7
06 17:53 SE 20 16.09 Fair CLR 32.8 16.1 37% 33 76.12 1014.7
06 16:53 SE 11 16.09 Fair CLR 33.3 13.9 31% 33 76.12 1014.8
06 15:53 Calm 16.09 Fair CLR 32.8 13.9 32% 32 76.15 1015.1
06 14:53 Calm 16.09 Fair CLR 32.8 14.4 33% 32 76.2 1015.8
06 13:53 Calm 16.09 Fair CLR 32.2 15.6 32.2 20.6 37% 32 76.25 1016.5
06 12:53 SE 11 16.09 Fair CLR 31.1 16.1 40% 31 76.3 1017.2
06 11:53 SE 15 16.09 Fair CLR 28.9 16.7 48% 29 76.33 1017.5
06 10:53 S 11 16.09 Fair CLR 27.8 18.3 56% 29 76.33 1017.5
06 09:53 S 13 16.09 Fair CLR 25.6 18.9 67% 27 76.33 1017.3
06 08:53 SE 9 16.09 Fair CLR 22.8 18.3 76% 76.3 1017.1
06 07:53 SE 6 16.09 Fair CLR 20.6 17.8 20.6 17.2 84% 76.28 1016.7
06 06:53 SE 6 16.09 Fair CLR 17.2 15.6 90% 76.23 1016.2
06 05:53 Calm 16.09 Fair CLR 18.3 16.1 87% 76.23 1016.1
06 04:53 Calm 16.09 Fair CLR 18.3 16.1 87% 76.17 1015.6
06 03:53 Calm 16.09 Fair CLR 18.3 15 81% 76.2 1015.8
06 02:53 Calm 16.09 Fair CLR 18.9 15 78% 76.23 1015.9
06 01:53 Calm 16.09 Fair CLR 20 15 23.3 19.4 73% 76.25 1016.4
06 00:53 Calm 16.09 Fair CLR 21.1 15.6 71% 76.28 1016.9
05 23:53 SE 9 16.09 Fair CLR 21.1 15.6 71% 76.25 1016.6
05 22:53 SE 11 16.09 Fair CLR 20 13.9 68% 76.25 1016.4
05 21:53 E 7 16.09 Fair CLR 20.6 13.3 63% 76.25 1016.3
05 20:53 E 9 16.09 Fair CLR 22.2 12.8 55% 76.2 1015.8
05 19:53 E 15 16.09 Fair CLR 23.3 13.3 30.6 23.3 54% 76.17 1015.3
05 18:53 E 20 16.09 Fair CLR 25.6 12.8 45% 26 76.17 1015.3
05 17:53 E 22 G 33 16.09 Fair CLR 27.2 12.8 41% 27 76.17 1015.4
05 16:53 E 20 G 33 16.09 Partly Cloudy SCT085 27.8 13.3 41% 28 76.15 1015.1
05 15:53 E 15 16.09 Overcast OVC055 27.2 13.9 44% 27 76.2 1015.6
Date Time (edt) Wind (kph) Vis. (km) Weather Sky Cond. Air Dwpt Max. Min. Relative Humidity Wind Chill (°C) Heat Index (°C) altimeter (cm) sea level (mb) 1 hr 3 hr 6 hr
6 hour
Temperature (ºC) Pressure Precipitation (cm)